sensor_id;sensor_type;location;lat;lon;timestamp;pressure;altitude;pressure_sealevel;temperature;humidity
82152;BME280;71721;47.904;-122.188;2023-08-08T00:01:43;100678.05;;;12.16;44.40
82152;BME280;71721;47.904;-122.188;2023-08-08T00:04:10;100674.15;;;14.84;41.52
82152;BME280;71721;47.904;-122.188;2023-08-08T00:06:33;100674.67;;;15.13;40.69
82152;BME280;71721;47.904;-122.188;2023-08-08T00:08:58;100672.16;;;16.13;39.25
82152;BME280;71721;47.904;-122.188;2023-08-08T00:11:28;100668.01;;;13.61;41.78
82152;BME280;71721;47.904;-122.188;2023-08-08T00:14:00;100666.24;;;12.68;42.94
82152;BME280;71721;47.904;-122.188;2023-08-08T00:16:14;100671.23;;;13.80;41.73
82152;BME280;71721;47.904;-122.188;2023-08-08T00:18:39;100671.74;;;13.16;42.88
82152;BME280;71721;47.904;-122.188;2023-08-08T00:21:05;100671.25;;;14.81;41.25
82152;BME280;71721;47.904;-122.188;2023-08-08T00:23:30;100668.95;;;14.61;41.39
82152;BME280;71721;47.904;-122.188;2023-08-08T00:25:55;100670.50;;;16.23;39.07
82152;BME280;71721;47.904;-122.188;2023-08-08T00:28:21;100671.10;;;13.53;41.82
82152;BME280;71721;47.904;-122.188;2023-08-08T00:30:46;100672.53;;;14.04;41.65
82152;BME280;71721;47.904;-122.188;2023-08-08T00:33:11;100671.31;;;14.74;40.52
82152;BME280;71721;47.904;-122.188;2023-08-08T00:35:37;100674.05;;;13.68;41.89
82152;BME280;71721;47.904;-122.188;2023-08-08T00:38:01;100672.43;;;14.70;41.09
82152;BME280;71721;47.904;-122.188;2023-08-08T00:40:26;100668.65;;;14.08;41.69
82152;BME280;71721;47.904;-122.188;2023-08-08T00:42:52;100666.70;;;15.36;40.14
82152;BME280;71721;47.904;-122.188;2023-08-08T00:45:17;100665.35;;;16.14;39.26
82152;BME280;71721;47.904;-122.188;2023-08-08T00:47:43;100661.55;;;15.36;39.56
82152;BME280;71721;47.904;-122.188;2023-08-08T00:50:09;100661.53;;;16.77;38.26
82152;BME280;71721;47.904;-122.188;2023-08-08T00:52:32;100666.84;;;15.05;40.34
82152;BME280;71721;47.904;-122.188;2023-08-08T00:54:58;100670.35;;;15.65;38.76
82152;BME280;71721;47.904;-122.188;2023-08-08T00:57:23;100655.20;;;16.53;37.81
82152;BME280;71721;47.904;-122.188;2023-08-08T00:59:49;100654.69;;;16.32;38.32
82152;BME280;71721;47.904;-122.188;2023-08-08T01:02:13;100649.22;;;15.43;39.74
82152;BME280;71721;47.904;-122.188;2023-08-08T01:04:39;100649.86;;;15.75;39.79
82152;BME280;71721;47.904;-122.188;2023-08-08T01:07:12;100646.56;;;17.03;37.36
82152;BME280;71721;47.904;-122.188;2023-08-08T01:09:32;100637.38;;;16.22;38.78
82152;BME280;71721;47.904;-122.188;2023-08-08T01:11:53;100634.79;;;15.19;39.89
82152;BME280;71721;47.904;-122.188;2023-08-08T01:14:19;100627.74;;;16.03;38.52
82152;BME280;71721;47.904;-122.188;2023-08-08T01:16:44;100628.31;;;16.10;38.29
82152;BME280;71721;47.904;-122.188;2023-08-08T01:19:23;100628.43;;;16.84;37.02
82152;BME280;71721;47.904;-122.188;2023-08-08T01:21:36;100627.91;;;16.80;36.97
82152;BME280;71721;47.904;-122.188;2023-08-08T01:26:25;100624.56;;;17.36;36.00
82152;BME280;71721;47.904;-122.188;2023-08-08T01:28:55;100620.99;;;17.99;35.12
82152;BME280;71721;47.904;-122.188;2023-08-08T01:31:14;100616.56;;;18.53;34.71
82152;BME280;71721;47.904;-122.188;2023-08-08T01:33:46;100611.91;;;18.69;34.48
82152;BME280;71721;47.904;-122.188;2023-08-08T01:36:10;100606.28;;;19.17;34.23
82152;BME280;71721;47.904;-122.188;2023-08-08T01:38:33;100606.79;;;16.35;37.55
82152;BME280;71721;47.904;-122.188;2023-08-08T01:41:02;100611.33;;;16.44;36.64
82152;BME280;71721;47.904;-122.188;2023-08-08T01:43:21;100608.47;;;16.80;36.04
82152;BME280;71721;47.904;-122.188;2023-08-08T01:45:53;100605.41;;;15.33;36.77
82152;BME280;71721;47.904;-122.188;2023-08-08T01:48:13;100599.81;;;14.80;37.88
82152;BME280;71721;47.904;-122.188;2023-08-08T01:50:37;100601.06;;;14.23;38.93
82152;BME280;71721;47.904;-122.188;2023-08-08T01:53:04;100597.23;;;15.18;37.74
82152;BME280;71721;47.904;-122.188;2023-08-08T01:55:30;100595.55;;;15.47;37.78
82152;BME280;71721;47.904;-122.188;2023-08-08T01:57:52;100593.83;;;13.52;39.93
82152;BME280;71721;47.904;-122.188;2023-08-08T02:00:17;100589.93;;;15.56;38.38
82152;BME280;71721;47.904;-122.188;2023-08-08T02:02:43;100589.55;;;14.89;38.57
82152;BME280;71721;47.904;-122.188;2023-08-08T02:05:13;100590.10;;;14.90;38.75
82152;BME280;71721;47.904;-122.188;2023-08-08T02:07:33;100593.71;;;15.72;37.42
82152;BME280;71721;47.904;-122.188;2023-08-08T02:10:03;100593.39;;;16.18;37.33
82152;BME280;71721;47.904;-122.188;2023-08-08T02:12:23;100593.75;;;16.08;37.22
82152;BME280;71721;47.904;-122.188;2023-08-08T02:14:53;100590.00;;;15.19;37.89
82152;BME280;71721;47.904;-122.188;2023-08-08T02:17:13;100590.16;;;16.03;37.63
82152;BME280;71721;47.904;-122.188;2023-08-08T02:19:38;100592.54;;;16.89;36.19
82152;BME280;71721;47.904;-122.188;2023-08-08T02:22:03;100590.69;;;18.10;35.24
82152;BME280;71721;47.904;-122.188;2023-08-08T02:24:28;100589.39;;;18.42;34.68
82152;BME280;71721;47.904;-122.188;2023-08-08T02:26:54;100587.05;;;18.50;34.21
82152;BME280;71721;47.904;-122.188;2023-08-08T02:29:19;100588.54;;;18.97;34.01
82152;BME280;71721;47.904;-122.188;2023-08-08T02:31:44;100587.41;;;18.80;34.16
82152;BME280;71721;47.904;-122.188;2023-08-08T02:34:09;100587.28;;;18.70;33.96
82152;BME280;71721;47.904;-122.188;2023-08-08T02:36:38;100586.95;;;19.02;33.78
82152;BME280;71721;47.904;-122.188;2023-08-08T02:38:59;100586.17;;;18.69;33.73
82152;BME280;71721;47.904;-122.188;2023-08-08T02:41:24;100590.20;;;18.79;33.90
82152;BME280;71721;47.904;-122.188;2023-08-08T02:43:50;100590.11;;;18.52;33.90
82152;BME280;71721;47.904;-122.188;2023-08-08T02:46:15;100590.45;;;18.08;34.65
82152;BME280;71721;47.904;-122.188;2023-08-08T02:48:40;100592.38;;;17.70;35.25
82152;BME280;71721;47.904;-122.188;2023-08-08T02:51:05;100591.50;;;17.94;35.07
82152;BME280;71721;47.904;-122.188;2023-08-08T02:53:31;100592.97;;;15.34;37.89
82152;BME280;71721;47.904;-122.188;2023-08-08T02:55:55;100596.31;;;14.98;38.48
82152;BME280;71721;47.904;-122.188;2023-08-08T02:58:21;100596.99;;;14.14;39.43
82152;BME280;71721;47.904;-122.188;2023-08-08T03:00:45;100594.45;;;16.61;37.10
82152;BME280;71721;47.904;-122.188;2023-08-08T03:03:11;100593.23;;;14.76;38.33
82152;BME280;71721;47.904;-122.188;2023-08-08T03:05:36;100594.51;;;16.11;37.54
82152;BME280;71721;47.904;-122.188;2023-08-08T03:08:01;100597.72;;;16.43;37.12
82152;BME280;71721;47.904;-122.188;2023-08-08T03:10:26;100595.31;;;16.37;37.00
82152;BME280;71721;47.904;-122.188;2023-08-08T03:12:51;100594.82;;;17.57;36.26
82152;BME280;71721;47.904;-122.188;2023-08-08T03:15:16;100595.46;;;17.18;36.57
82152;BME280;71721;47.904;-122.188;2023-08-08T03:17:42;100596.17;;;16.60;37.79
82152;BME280;71721;47.904;-122.188;2023-08-08T03:20:08;100594.24;;;16.76;37.66
82152;BME280;71721;47.904;-122.188;2023-08-08T03:22:32;100593.24;;;17.09;37.73
82152;BME280;71721;47.904;-122.188;2023-08-08T03:24:58;100597.38;;;16.78;38.16
82152;BME280;71721;47.904;-122.188;2023-08-08T03:27:23;100593.21;;;15.69;39.34
82152;BME280;71721;47.904;-122.188;2023-08-08T03:29:48;100601.06;;;13.22;41.46
82152;BME280;71721;47.904;-122.188;2023-08-08T03:32:14;100601.21;;;13.31;42.27
82152;BME280;71721;47.904;-122.188;2023-08-08T03:34:44;100603.73;;;11.81;46.10
82152;BME280;71721;47.904;-122.188;2023-08-08T03:37:05;100608.07;;;12.58;44.21
82152;BME280;71721;47.904;-122.188;2023-08-08T03:39:28;100608.02;;;11.44;45.93
82152;BME280;71721;47.904;-122.188;2023-08-08T03:41:56;100604.46;;;11.82;46.72
82152;BME280;71721;47.904;-122.188;2023-08-08T03:44:20;100606.34;;;11.19;47.04
82152;BME280;71721;47.904;-122.188;2023-08-08T03:46:46;100606.91;;;11.56;46.71
82152;BME280;71721;47.904;-122.188;2023-08-08T03:49:10;100611.96;;;12.63;45.02
82152;BME280;71721;47.904;-122.188;2023-08-08T03:51:44;100615.44;;;12.40;44.41
82152;BME280;71721;47.904;-122.188;2023-08-08T03:54:00;100620.01;;;9.40;49.85
82152;BME280;71721;47.904;-122.188;2023-08-08T03:56:26;100620.37;;;10.19;48.47
82152;BME280;71721;47.904;-122.188;2023-08-08T03:58:51;100621.85;;;9.92;48.80
82152;BME280;71721;47.904;-122.188;2023-08-08T04:01:16;100626.50;;;9.80;49.55
82152;BME280;71721;47.904;-122.188;2023-08-08T04:03:42;100626.13;;;9.13;50.23
82152;BME280;71721;47.904;-122.188;2023-08-08T04:06:06;100627.67;;;10.19;48.51
82152;BME280;71721;47.904;-122.188;2023-08-08T04:08:34;100632.12;;;9.23;50.38
82152;BME280;71721;47.904;-122.188;2023-08-08T04:10:58;100630.02;;;8.65;50.06
82152;BME280;71721;47.904;-122.188;2023-08-08T04:13:24;100630.37;;;9.40;49.53
82152;BME280;71721;47.904;-122.188;2023-08-08T04:15:48;100631.73;;;9.41;48.33
82152;BME280;71721;47.904;-122.188;2023-08-08T04:18:14;100637.08;;;8.64;50.23
82152;BME280;71721;47.904;-122.188;2023-08-08T04:20:39;100634.03;;;9.16;48.88
82152;BME280;71721;47.904;-122.188;2023-08-08T04:23:03;100631.67;;;9.52;48.86
82152;BME280;71721;47.904;-122.188;2023-08-08T04:25:29;100633.12;;;9.22;48.83
82152;BME280;71721;47.904;-122.188;2023-08-08T04:27:55;100633.79;;;9.98;46.99
82152;BME280;71721;47.904;-122.188;2023-08-08T04:30:20;100641.31;;;8.28;50.47
82152;BME280;71721;47.904;-122.188;2023-08-08T04:32:45;100638.84;;;6.57;55.96
82152;BME280;71721;47.904;-122.188;2023-08-08T04:35:09;100638.55;;;7.61;53.24
82152;BME280;71721;47.904;-122.188;2023-08-08T04:37:36;100636.42;;;6.71;55.94
82152;BME280;71721;47.904;-122.188;2023-08-08T04:40:01;100638.77;;;5.42;59.24
82152;BME280;71721;47.904;-122.188;2023-08-08T04:42:26;100641.32;;;5.98;57.82
82152;BME280;71721;47.904;-122.188;2023-08-08T04:44:51;100638.77;;;5.56;59.65
82152;BME280;71721;47.904;-122.188;2023-08-08T04:47:16;100634.46;;;6.34;56.52
82152;BME280;71721;47.904;-122.188;2023-08-08T04:49:42;100632.16;;;7.00;54.80
82152;BME280;71721;47.904;-122.188;2023-08-08T04:52:07;100629.24;;;7.42;54.25
82152;BME280;71721;47.904;-122.188;2023-08-08T04:54:32;100633.34;;;6.40;56.19
82152;BME280;71721;47.904;-122.188;2023-08-08T04:56:58;100638.77;;;6.03;56.33
82152;BME280;71721;47.904;-122.188;2023-08-08T04:59:25;100642.09;;;6.40;57.66
82152;BME280;71721;47.904;-122.188;2023-08-08T05:01:49;100641.24;;;6.72;55.39
82152;BME280;71721;47.904;-122.188;2023-08-08T05:04:14;100649.18;;;6.14;57.52
82152;BME280;71721;47.904;-122.188;2023-08-08T05:06:41;100647.78;;;6.14;57.50
82152;BME280;71721;47.904;-122.188;2023-08-08T05:09:04;100640.35;;;7.33;54.23
82152;BME280;71721;47.904;-122.188;2023-08-08T05:11:30;100644.78;;;6.27;56.39
82152;BME280;71721;47.904;-122.188;2023-08-08T05:13:55;100645.63;;;6.90;55.92
82152;BME280;71721;47.904;-122.188;2023-08-08T05:16:20;100644.39;;;7.19;54.25
82152;BME280;71721;47.904;-122.188;2023-08-08T05:18:46;100643.23;;;6.87;56.01
82152;BME280;71721;47.904;-122.188;2023-08-08T05:21:11;100641.26;;;7.20;54.28
82152;BME280;71721;47.904;-122.188;2023-08-08T05:23:39;100640.93;;;8.94;49.99
82152;BME280;71721;47.904;-122.188;2023-08-08T05:26:07;100642.49;;;10.11;47.62
82152;BME280;71721;47.904;-122.188;2023-08-08T05:28:29;100646.87;;;7.93;51.51
82152;BME280;71721;47.904;-122.188;2023-08-08T05:30:53;100652.42;;;7.61;52.48
82152;BME280;71721;47.904;-122.188;2023-08-08T05:33:18;100652.38;;;6.61;55.65
82152;BME280;71721;47.904;-122.188;2023-08-08T05:35:44;100650.78;;;7.22;53.82
82152;BME280;71721;47.904;-122.188;2023-08-08T05:38:09;100650.86;;;7.53;53.64
82152;BME280;71721;47.904;-122.188;2023-08-08T05:40:36;100654.18;;;8.74;49.80
82152;BME280;71721;47.904;-122.188;2023-08-08T05:43:00;100658.43;;;8.06;50.74
82152;BME280;71721;47.904;-122.188;2023-08-08T05:45:26;100659.29;;;6.20;54.69
82152;BME280;71721;47.904;-122.188;2023-08-08T05:47:52;100661.65;;;6.94;54.69
82152;BME280;71721;47.904;-122.188;2023-08-08T05:50:16;100659.74;;;6.58;56.00
82152;BME280;71721;47.904;-122.188;2023-08-08T05:52:46;100663.11;;;6.61;55.77
82152;BME280;71721;47.904;-122.188;2023-08-08T05:55:07;100660.37;;;5.56;59.66
82152;BME280;71721;47.904;-122.188;2023-08-08T05:57:37;100657.06;;;5.12;56.88
82152;BME280;71721;47.904;-122.188;2023-08-08T05:59:58;100651.15;;;7.11;54.13
82152;BME280;71721;47.904;-122.188;2023-08-08T06:02:23;100655.35;;;8.37;51.43
82152;BME280;71721;47.904;-122.188;2023-08-08T06:04:53;100650.63;;;9.52;48.83
82152;BME280;71721;47.904;-122.188;2023-08-08T06:07:13;100649.48;;;9.69;47.06
82152;BME280;71721;47.904;-122.188;2023-08-08T06:09:39;100650.60;;;10.21;45.96
82152;BME280;71721;47.904;-122.188;2023-08-08T06:12:07;100647.42;;;10.40;46.01
82152;BME280;71721;47.904;-122.188;2023-08-08T06:14:30;100646.32;;;9.27;46.53
82152;BME280;71721;47.904;-122.188;2023-08-08T06:16:59;100646.61;;;11.19;44.31
82152;BME280;71721;47.904;-122.188;2023-08-08T06:19:20;100649.48;;;10.08;45.91
82152;BME280;71721;47.904;-122.188;2023-08-08T06:21:47;100644.92;;;8.99;48.79
82152;BME280;71721;47.904;-122.188;2023-08-08T06:24:20;100644.40;;;9.52;47.37
82152;BME280;71721;47.904;-122.188;2023-08-08T06:26:36;100640.71;;;9.35;47.22
82152;BME280;71721;47.904;-122.188;2023-08-08T06:29:01;100637.55;;;9.70;46.73
82152;BME280;71721;47.904;-122.188;2023-08-08T06:31:27;100635.67;;;10.44;46.16
82152;BME280;71721;47.904;-122.188;2023-08-08T06:33:52;100636.19;;;10.65;45.34
82152;BME280;71721;47.904;-122.188;2023-08-08T06:36:23;100633.27;;;10.10;45.72
82152;BME280;71721;47.904;-122.188;2023-08-08T06:38:53;100632.86;;;11.02;44.65
82152;BME280;71721;47.904;-122.188;2023-08-08T06:41:08;100630.93;;;11.28;43.96
82152;BME280;71721;47.904;-122.188;2023-08-08T06:43:34;100629.22;;;11.55;43.71
82152;BME280;71721;47.904;-122.188;2023-08-08T06:45:59;100630.60;;;10.24;45.03
82152;BME280;71721;47.904;-122.188;2023-08-08T06:48:25;100633.69;;;11.08;44.38
82152;BME280;71721;47.904;-122.188;2023-08-08T06:50:49;100629.99;;;11.49;43.72
82152;BME280;71721;47.904;-122.188;2023-08-08T06:53:14;100634.00;;;8.95;46.76
82152;BME280;71721;47.904;-122.188;2023-08-08T06:55:40;100634.85;;;10.35;46.05
82152;BME280;71721;47.904;-122.188;2023-08-08T06:58:07;100636.49;;;8.81;47.82
82152;BME280;71721;47.904;-122.188;2023-08-08T07:00:30;100632.50;;;9.38;47.12
82152;BME280;71721;47.904;-122.188;2023-08-08T07:02:56;100636.30;;;10.65;45.16
82152;BME280;71721;47.904;-122.188;2023-08-08T07:05:22;100636.02;;;10.93;44.60
82152;BME280;71721;47.904;-122.188;2023-08-08T07:07:46;100636.48;;;8.43;48.33
82152;BME280;71721;47.904;-122.188;2023-08-08T07:10:13;100634.72;;;9.65;47.10
82152;BME280;71721;47.904;-122.188;2023-08-08T07:12:37;100632.49;;;10.27;45.88
82152;BME280;71721;47.904;-122.188;2023-08-08T07:15:09;100632.87;;;8.84;48.70
82152;BME280;71721;47.904;-122.188;2023-08-08T07:17:28;100638.91;;;7.00;51.50
82152;BME280;71721;47.904;-122.188;2023-08-08T07:19:54;100637.11;;;8.99;48.78
82152;BME280;71721;47.904;-122.188;2023-08-08T07:22:18;100637.83;;;9.37;47.19
82152;BME280;71721;47.904;-122.188;2023-08-08T07:24:45;100636.96;;;9.89;46.16
82152;BME280;71721;47.904;-122.188;2023-08-08T07:27:10;100638.97;;;10.60;45.08
82152;BME280;71721;47.904;-122.188;2023-08-08T07:29:35;100641.79;;;10.91;44.64
82152;BME280;71721;47.904;-122.188;2023-08-08T07:32:03;100642.35;;;10.29;44.47
82152;BME280;71721;47.904;-122.188;2023-08-08T07:34:25;100642.47;;;10.01;45.17
82152;BME280;71721;47.904;-122.188;2023-08-08T07:36:51;100647.29;;;10.77;44.16
82152;BME280;71721;47.904;-122.188;2023-08-08T07:39:16;100646.75;;;10.85;44.50
82152;BME280;71721;47.904;-122.188;2023-08-08T07:41:42;100648.82;;;10.55;44.67
82152;BME280;71721;47.904;-122.188;2023-08-08T07:44:08;100644.72;;;8.64;46.93
82152;BME280;71721;47.904;-122.188;2023-08-08T07:46:40;100645.69;;;10.00;45.45
82152;BME280;71721;47.904;-122.188;2023-08-08T07:49:03;100648.68;;;10.26;44.86
82152;BME280;71721;47.904;-122.188;2023-08-08T07:51:23;100651.36;;;10.73;44.82
82152;BME280;71721;47.904;-122.188;2023-08-08T07:53:50;100651.05;;;9.30;47.92
82152;BME280;71721;47.904;-122.188;2023-08-08T07:56:13;100651.65;;;9.76;46.63
82152;BME280;71721;47.904;-122.188;2023-08-08T07:58:39;100652.46;;;10.70;44.97
82152;BME280;71721;47.904;-122.188;2023-08-08T08:01:04;100653.30;;;9.03;46.64
82152;BME280;71721;47.904;-122.188;2023-08-08T08:03:29;100651.14;;;10.12;45.41
82152;BME280;71721;47.904;-122.188;2023-08-08T08:05:56;100652.31;;;9.54;46.62
82152;BME280;71721;47.904;-122.188;2023-08-08T08:08:20;100649.40;;;9.37;46.60
82152;BME280;71721;47.904;-122.188;2023-08-08T08:10:46;100646.83;;;8.45;47.16
82152;BME280;71721;47.904;-122.188;2023-08-08T08:13:11;100643.18;;;9.91;45.59
82152;BME280;71721;47.904;-122.188;2023-08-08T08:15:36;100644.66;;;9.33;47.17
82152;BME280;71721;47.904;-122.188;2023-08-08T08:18:03;100643.19;;;9.82;46.03
82152;BME280;71721;47.904;-122.188;2023-08-08T08:20:27;100643.05;;;8.17;48.14
82152;BME280;71721;47.904;-122.188;2023-08-08T08:22:58;100642.53;;;9.72;46.22
82152;BME280;71721;47.904;-122.188;2023-08-08T08:25:18;100645.24;;;9.53;46.39
82152;BME280;71721;47.904;-122.188;2023-08-08T08:27:48;100646.86;;;10.38;45.21
82152;BME280;71721;47.904;-122.188;2023-08-08T08:30:10;100648.10;;;11.11;44.46
82152;BME280;71721;47.904;-122.188;2023-08-08T08:32:35;100650.49;;;9.22;46.15
82152;BME280;71721;47.904;-122.188;2023-08-08T08:34:59;100646.06;;;9.70;45.69
82152;BME280;71721;47.904;-122.188;2023-08-08T08:37:24;100646.40;;;9.76;45.75
82152;BME280;71721;47.904;-122.188;2023-08-08T08:39:50;100647.48;;;10.62;44.21
82152;BME280;71721;47.904;-122.188;2023-08-08T08:42:15;100645.21;;;11.15;43.79
82152;BME280;71721;47.904;-122.188;2023-08-08T08:44:41;100645.13;;;9.91;44.88
82152;BME280;71721;47.904;-122.188;2023-08-08T08:47:08;100645.44;;;10.87;44.43
82152;BME280;71721;47.904;-122.188;2023-08-08T08:49:31;100641.48;;;11.34;43.63
82152;BME280;71721;47.904;-122.188;2023-08-08T08:51:56;100636.52;;;11.27;43.35
82152;BME280;71721;47.904;-122.188;2023-08-08T08:54:21;100634.67;;;11.42;43.44
82152;BME280;71721;47.904;-122.188;2023-08-08T08:56:47;100631.77;;;11.67;43.34
82152;BME280;71721;47.904;-122.188;2023-08-08T08:59:12;100631.53;;;11.36;43.59
82152;BME280;71721;47.904;-122.188;2023-08-08T09:01:38;100633.43;;;11.16;43.68
82152;BME280;71721;47.904;-122.188;2023-08-08T09:04:04;100635.03;;;8.66;46.52
82152;BME280;71721;47.904;-122.188;2023-08-08T09:06:29;100634.74;;;8.61;47.00
82152;BME280;71721;47.904;-122.188;2023-08-08T09:08:53;100638.98;;;8.30;47.77
82152;BME280;71721;47.904;-122.188;2023-08-08T09:11:18;100636.59;;;8.89;46.88
82152;BME280;71721;47.904;-122.188;2023-08-08T09:13:44;100636.75;;;9.50;46.04
82152;BME280;71721;47.904;-122.188;2023-08-08T09:16:10;100638.70;;;10.04;45.27
82152;BME280;71721;47.904;-122.188;2023-08-08T09:18:35;100638.36;;;9.01;46.24
82152;BME280;71721;47.904;-122.188;2023-08-08T09:21:00;100639.45;;;9.38;45.77
82152;BME280;71721;47.904;-122.188;2023-08-08T09:23:25;100638.66;;;10.36;44.50
82152;BME280;71721;47.904;-122.188;2023-08-08T09:25:52;100637.20;;;10.07;44.59
82152;BME280;71721;47.904;-122.188;2023-08-08T09:28:17;100640.17;;;10.47;44.33
82152;BME280;71721;47.904;-122.188;2023-08-08T09:30:42;100640.60;;;8.12;47.03
82152;BME280;71721;47.904;-122.188;2023-08-08T09:33:07;100638.42;;;10.48;44.85
82152;BME280;71721;47.904;-122.188;2023-08-08T09:35:32;100641.88;;;8.30;47.15
82152;BME280;71721;47.904;-122.188;2023-08-08T09:38:04;100638.29;;;9.48;45.65
82152;BME280;71721;47.904;-122.188;2023-08-08T09:40:24;100638.62;;;9.74;45.40
82152;BME280;71721;47.904;-122.188;2023-08-08T09:42:50;100640.64;;;9.80;45.20
82152;BME280;71721;47.904;-122.188;2023-08-08T09:45:20;100642.47;;;10.64;44.04
82152;BME280;71721;47.904;-122.188;2023-08-08T09:47:39;100643.20;;;10.78;43.96
82152;BME280;71721;47.904;-122.188;2023-08-08T09:50:08;100644.97;;;10.61;44.16
82152;BME280;71721;47.904;-122.188;2023-08-08T09:52:32;100649.38;;;10.55;44.12
82152;BME280;71721;47.904;-122.188;2023-08-08T09:54:56;100649.99;;;10.34;44.46
82152;BME280;71721;47.904;-122.188;2023-08-08T09:57:26;100654.04;;;10.84;44.24
82152;BME280;71721;47.904;-122.188;2023-08-08T09:59:53;100652.19;;;10.88;44.11
82152;BME280;71721;47.904;-122.188;2023-08-08T10:02:14;100651.25;;;10.61;44.11
82152;BME280;71721;47.904;-122.188;2023-08-08T10:04:37;100646.24;;;10.13;44.86
82152;BME280;71721;47.904;-122.188;2023-08-08T10:07:07;100647.13;;;10.01;45.05
82152;BME280;71721;47.904;-122.188;2023-08-08T10:09:27;100644.12;;;10.54;44.46
82152;BME280;71721;47.904;-122.188;2023-08-08T10:11:53;100645.15;;;10.64;44.11
82152;BME280;71721;47.904;-122.188;2023-08-08T10:14:30;100645.19;;;10.69;43.94
82152;BME280;71721;47.904;-122.188;2023-08-08T10:16:48;100644.25;;;10.78;43.93
82152;BME280;71721;47.904;-122.188;2023-08-08T10:19:09;100647.45;;;11.01;43.42
82152;BME280;71721;47.904;-122.188;2023-08-08T10:21:37;100646.91;;;10.94;43.88
82152;BME280;71721;47.904;-122.188;2023-08-08T10:24:05;100645.30;;;10.83;43.86
82152;BME280;71721;47.904;-122.188;2023-08-08T10:26:24;100645.46;;;10.94;43.89
82152;BME280;71721;47.904;-122.188;2023-08-08T10:28:56;100642.20;;;10.62;44.02
82152;BME280;71721;47.904;-122.188;2023-08-08T10:31:21;100641.88;;;10.94;43.51
82152;BME280;71721;47.904;-122.188;2023-08-08T10:33:42;100640.39;;;11.10;43.75
82152;BME280;71721;47.904;-122.188;2023-08-08T10:36:08;100641.16;;;10.67;44.35
82152;BME280;71721;47.904;-122.188;2023-08-08T10:38:41;100637.85;;;10.39;45.17
82152;BME280;71721;47.904;-122.188;2023-08-08T10:40:59;100639.05;;;9.39;46.18
82152;BME280;71721;47.904;-122.188;2023-08-08T10:43:26;100636.64;;;9.99;46.24
82152;BME280;71721;47.904;-122.188;2023-08-08T10:45:48;100635.17;;;10.28;45.14
82152;BME280;71721;47.904;-122.188;2023-08-08T10:48:13;100636.86;;;10.91;44.44
82152;BME280;71721;47.904;-122.188;2023-08-08T10:50:40;100638.33;;;10.59;44.82
82152;BME280;71721;47.904;-122.188;2023-08-08T10:53:04;100640.67;;;11.01;44.06
82152;BME280;71721;47.904;-122.188;2023-08-08T10:55:37;100638.64;;;10.78;43.96
82152;BME280;71721;47.904;-122.188;2023-08-08T10:57:57;100638.16;;;10.98;43.59
82152;BME280;71721;47.904;-122.188;2023-08-08T11:00:20;100635.97;;;11.13;43.65
82152;BME280;71721;47.904;-122.188;2023-08-08T11:02:50;100633.95;;;11.37;43.31
82152;BME280;71721;47.904;-122.188;2023-08-08T11:05:11;100637.29;;;10.21;44.90
82152;BME280;71721;47.904;-122.188;2023-08-08T11:07:36;100636.85;;;10.90;44.01
82152;BME280;71721;47.904;-122.188;2023-08-08T11:10:01;100635.71;;;10.70;44.40
82152;BME280;71721;47.904;-122.188;2023-08-08T11:12:26;100635.99;;;11.25;43.98
82152;BME280;71721;47.904;-122.188;2023-08-08T11:14:51;100633.11;;;10.97;44.31
82152;BME280;71721;47.904;-122.188;2023-08-08T11:17:17;100624.70;;;11.36;43.40
82152;BME280;71721;47.904;-122.188;2023-08-08T11:19:43;100621.24;;;11.27;43.62
82152;BME280;71721;47.904;-122.188;2023-08-08T11:22:15;100624.42;;;10.16;45.11
82152;BME280;71721;47.904;-122.188;2023-08-08T11:24:36;100620.20;;;9.85;45.64
82152;BME280;71721;47.904;-122.188;2023-08-08T11:26:59;100618.24;;;10.55;45.00
82152;BME280;71721;47.904;-122.188;2023-08-08T11:29:24;100615.84;;;11.18;44.20
82152;BME280;71721;47.904;-122.188;2023-08-08T11:31:49;100615.74;;;10.18;45.01
82152;BME280;71721;47.904;-122.188;2023-08-08T11:34:16;100619.42;;;10.90;44.43
82152;BME280;71721;47.904;-122.188;2023-08-08T11:36:40;100616.54;;;10.13;44.89
82152;BME280;71721;47.904;-122.188;2023-08-08T11:39:05;100615.18;;;11.07;44.14
82152;BME280;71721;47.904;-122.188;2023-08-08T11:41:32;100615.66;;;10.93;44.37
82152;BME280;71721;47.904;-122.188;2023-08-08T11:43:56;100611.66;;;10.84;44.27
82152;BME280;71721;47.904;-122.188;2023-08-08T11:46:25;100610.78;;;11.16;44.05
82152;BME280;71721;47.904;-122.188;2023-08-08T11:48:53;100611.21;;;11.24;44.01
82152;BME280;71721;47.904;-122.188;2023-08-08T11:51:13;100608.94;;;11.19;43.88
82152;BME280;71721;47.904;-122.188;2023-08-08T11:53:48;100607.78;;;11.58;43.67
82152;BME280;71721;47.904;-122.188;2023-08-08T11:56:03;100605.53;;;10.62;44.31
82152;BME280;71721;47.904;-122.188;2023-08-08T11:58:27;100602.89;;;11.62;43.49
82152;BME280;71721;47.904;-122.188;2023-08-08T12:00:54;100601.99;;;11.56;43.50
82152;BME280;71721;47.904;-122.188;2023-08-08T12:03:21;100603.27;;;11.52;43.33
82152;BME280;71721;47.904;-122.188;2023-08-08T12:05:46;100604.48;;;11.39;43.21
82152;BME280;71721;47.904;-122.188;2023-08-08T12:08:09;100606.73;;;11.05;43.24
82152;BME280;71721;47.904;-122.188;2023-08-08T12:10:34;100607.00;;;11.64;43.02
82152;BME280;71721;47.904;-122.188;2023-08-08T12:12:59;100604.38;;;10.47;43.97
82152;BME280;71721;47.904;-122.188;2023-08-08T12:15:28;100603.02;;;10.93;43.73